Time;durP1;ratioP1;P1;durP2;ratioP2;P2;SDS_P1;SDS_P2;PMS_P1;PMS_P2;Temp;Humidity;BMP_temperature;BMP_pressure;BME280_temperature;BME280_humidity;BME280_pressure;Samples;Min_cycle;Max_cycle;Signal;HPM_P1;HPM_P2
2023/06/04 00:00:08;;;;;;;5.97;5.63;;;17.00;99.90;;;;;;4985459;28;20203;-52
2023/06/04 00:02:35;;;;;;;5.77;5.27;;;16.90;99.90;;;;;;4994370;28;20227;-52
2023/06/04 00:05:02;;;;;;;6.20;5.70;;;16.90;99.90;;;;;;4989991;28;20676;-51
2023/06/04 00:07:30;;;;;;;5.67;5.27;;;16.80;99.90;;;;;;5001699;28;20203;-53
2023/06/04 00:09:57;;;;;;;6.30;5.70;;;16.80;99.90;;;;;;4995053;28;20235;-52
2023/06/04 00:12:24;;;;;;;5.07;4.80;;;16.80;99.90;;;;;;4994307;28;20708;-51
2023/06/04 00:14:51;;;;;;;6.40;5.93;;;16.70;99.90;;;;;;4996916;28;20227;-52
2023/06/04 00:17:18;;;;;;;5.67;5.17;;;16.70;99.90;;;;;;4992985;28;20254;-52
2023/06/04 00:19:45;;;;;;;6.17;5.67;;;16.70;99.90;;;;;;4990447;28;20201;-51
2023/06/04 00:22:12;;;;;;;6.33;5.83;;;16.70;99.90;;;;;;5002889;28;20656;-52
2023/06/04 00:24:41;;;;;;;6.83;6.20;;;16.70;99.90;;;;;;4994743;28;20717;-51
2023/06/04 00:27:12;;;;;;;6.00;5.53;;;16.70;99.90;;;;;;4988757;28;20196;-52
2023/06/04 00:29:38;;;;;;;5.47;5.07;;;16.70;99.90;;;;;;4992104;28;20258;-52
2023/06/04 00:32:10;;;;;;;5.20;4.90;;;16.70;99.90;;;;;;4989291;28;20840;-52
2023/06/04 00:34:36;;;;;;;7.87;5.63;;;16.60;99.90;;;;;;4984282;28;20223;-52
2023/06/04 00:37:03;;;;;;;5.40;5.10;;;16.70;99.90;;;;;;4999072;28;20604;-52
2023/06/04 00:39:30;;;;;;;5.50;5.00;;;16.70;99.90;;;;;;4988194;28;20678;-52
2023/06/04 00:41:59;;;;;;;7.23;5.60;;;16.70;99.90;;;;;;4997347;28;20250;-51
2023/06/04 00:44:26;;;;;;;5.50;5.00;;;16.60;99.90;;;;;;5002900;28;20247;-52
2023/06/04 00:46:54;;;;;;;5.03;4.63;;;16.60;99.90;;;;;;4991784;28;20204;-52
2023/06/04 00:49:21;;;;;;;4.80;4.40;;;16.50;99.90;;;;;;4991888;28;20219;-52
2023/06/04 00:51:49;;;;;;;5.30;5.00;;;16.50;99.90;;;;;;4989542;28;20203;-51
2023/06/04 00:54:17;;;;;;;4.77;4.53;;;16.50;99.90;;;;;;4989796;28;20227;-51
2023/06/04 00:56:44;;;;;;;5.10;4.80;;;16.50;99.90;;;;;;4998367;28;20254;-51
2023/06/04 00:59:13;;;;;;;6.00;5.40;;;16.50;99.90;;;;;;4996123;28;20204;-52
2023/06/04 01:01:46;;;;;;;6.70;6.10;;;16.40;99.90;;;;;;5002247;28;20211;-52
2023/06/04 01:04:19;;;;;;;6.03;5.40;;;16.40;99.90;;;;;;4995628;28;20242;-52
2023/06/04 01:06:50;;;;;;;6.90;6.30;;;16.40;99.90;;;;;;4996265;28;20703;-51
2023/06/04 01:09:19;;;;;;;6.83;6.33;;;16.30;99.90;;;;;;4984298;28;20199;-52
2023/06/04 01:11:46;;;;;;;6.53;5.93;;;16.30;99.90;;;;;;4999143;28;20208;-52
2023/06/04 01:14:15;;;;;;;6.13;5.67;;;16.20;99.90;;;;;;5001048;28;20281;-52
2023/06/04 01:16:50;;;;;;;7.47;6.83;;;16.20;99.90;;;;;;4992618;28;20250;-51
2023/06/04 01:19:47;;;;;;;7.03;6.43;;;16.20;99.90;;;;;;4985107;28;20247;-52
2023/06/04 01:22:24;;;;;;;8.53;7.57;;;16.00;99.90;;;;;;4983402;28;20616;-52
2023/06/04 01:24:56;;;;;;;6.80;6.20;;;16.00;99.90;;;;;;4999043;28;20302;-51
2023/06/04 01:27:24;;;;;;;8.60;6.80;;;16.00;99.90;;;;;;4998249;28;20267;-52
2023/06/04 01:29:52;;;;;;;8.23;7.47;;;16.00;99.90;;;;;;4981198;28;20210;-51
2023/06/04 01:32:20;;;;;;;7.33;6.63;;;15.90;99.90;;;;;;4994916;28;20207;-52
2023/06/04 01:34:47;;;;;;;7.70;7.00;;;15.90;99.90;;;;;;4993030;28;20223;-52
2023/06/04 01:37:16;;;;;;;7.93;7.17;;;15.90;99.90;;;;;;4997859;28;20241;-52
2023/06/04 01:39:43;;;;;;;8.93;8.17;;;15.80;99.90;;;;;;4988833;28;20203;-51
2023/06/04 01:42:13;;;;;;;7.47;6.73;;;15.80;99.90;;;;;;4987930;28;20270;-52
2023/06/04 01:44:40;;;;;;;7.80;7.20;;;15.70;99.90;;;;;;4986641;28;20235;-51
2023/06/04 01:47:10;;;;;;;7.30;6.77;;;15.70;99.90;;;;;;4996925;28;20352;-51
2023/06/04 01:52:05;;;;;;;7.80;7.10;;;15.60;99.90;;;;;;5027632;22;20235;-51
2023/06/04 01:54:33;;;;;;;9.03;7.37;;;15.60;99.90;;;;;;5000978;28;20664;-51
2023/06/04 01:57:00;;;;;;;6.70;6.20;;;15.60;99.90;;;;;;4997454;28;20208;-51
2023/06/04 01:59:27;;;;;;;7.13;6.50;;;15.60;99.90;;;;;;5000217;28;20203;-51
2023/06/04 02:01:54;;;;;;;7.93;7.30;;;15.60;99.90;;;;;;4997140;28;20224;-51
2023/06/04 02:04:22;;;;;;;7.40;6.80;;;15.50;99.90;;;;;;5000327;28;20204;-51
2023/06/04 02:06:49;;;;;;;7.67;6.97;;;15.60;99.90;;;;;;5000805;28;20573;-50
2023/06/04 02:09:16;;;;;;;8.73;8.03;;;15.60;99.90;;;;;;5000297;28;20188;-51
2023/06/04 02:11:43;;;;;;;7.87;7.10;;;15.50;99.90;;;;;;5010082;28;20231;-51
2023/06/04 02:14:10;;;;;;;8.00;7.20;;;15.50;99.90;;;;;;5007187;28;20226;-51
2023/06/04 02:16:38;;;;;;;7.60;6.90;;;15.50;99.90;;;;;;5010718;28;20252;-49
2023/06/04 02:19:05;;;;;;;5.83;5.53;;;15.50;99.90;;;;;;5000248;28;20656;-50
2023/06/04 02:21:35;;;;;;;7.73;7.17;;;15.50;99.90;;;;;;5000980;28;20593;-51
2023/06/04 02:24:02;;;;;;;6.67;6.27;;;15.50;99.90;;;;;;4996270;28;20204;-51
2023/06/04 02:26:29;;;;;;;6.93;6.40;;;15.50;99.90;;;;;;5006829;28;20261;-51
2023/06/04 02:28:56;;;;;;;7.27;6.53;;;15.50;99.90;;;;;;5013422;28;20270;-51
2023/06/04 02:31:23;;;;;;;7.67;7.07;;;15.50;99.90;;;;;;5000909;28;20728;-50
2023/06/04 02:33:50;;;;;;;6.60;6.03;;;15.50;99.90;;;;;;4994754;28;20207;-50
2023/06/04 02:36:18;;;;;;;6.53;6.03;;;15.50;99.90;;;;;;4995068;28;20203;-51
2023/06/04 02:38:46;;;;;;;7.63;6.77;;;15.50;99.90;;;;;;4994715;28;20224;-50
2023/06/04 02:41:13;;;;;;;6.67;6.07;;;15.50;99.90;;;;;;5006350;28;20211;-51
2023/06/04 02:43:40;;;;;;;7.60;7.00;;;15.50;99.90;;;;;;5008634;28;20282;-50
2023/06/04 02:46:07;;;;;;;6.53;6.03;;;15.40;99.90;;;;;;5005735;28;20246;-50
2023/06/04 02:48:34;;;;;;;6.80;6.17;;;15.40;99.90;;;;;;5002287;28;20204;-51
2023/06/04 02:51:01;;;;;;;6.70;6.20;;;15.40;99.90;;;;;;5009441;28;20247;-51
2023/06/04 02:53:28;;;;;;;8.33;7.57;;;15.40;99.90;;;;;;4998921;28;20743;-51
2023/06/04 02:55:56;;;;;;;8.40;7.47;;;15.30;99.90;;;;;;5001881;28;20203;-51
2023/06/04 02:58:25;;;;;;;7.67;7.10;;;15.30;99.90;;;;;;5002839;28;20246;-51
2023/06/04 03:00:53;;;;;;;7.67;6.97;;;15.20;99.90;;;;;;5001677;28;20258;-51
2023/06/04 03:03:20;;;;;;;7.67;7.07;;;15.20;99.90;;;;;;4999777;28;20195;-50
2023/06/04 03:05:47;;;;;;;8.33;7.73;;;15.30;99.90;;;;;;5014344;28;20231;-50
2023/06/04 03:08:15;;;;;;;7.97;7.30;;;15.30;99.90;;;;;;5001832;28;20200;-50
2023/06/04 03:10:41;;;;;;;8.03;7.43;;;15.30;99.90;;;;;;4998086;28;20251;-50
2023/06/04 03:13:10;;;;;;;8.30;7.43;;;15.30;99.90;;;;;;4985199;28;20203;-51
2023/06/04 03:15:38;;;;;;;9.10;8.30;;;15.30;99.90;;;;;;5002469;28;20227;-50
2023/06/04 03:18:05;;;;;;;8.53;7.93;;;15.40;99.90;;;;;;4994542;28;20224;-50
2023/06/04 03:20:38;;;;;;;8.53;7.83;;;15.40;99.90;;;;;;5005083;28;20708;-51
2023/06/04 03:23:04;;;;;;;8.10;7.30;;;15.40;99.90;;;;;;4997315;28;20205;-50
2023/06/04 03:25:31;;;;;;;9.13;8.23;;;15.40;99.90;;;;;;4995334;28;20246;-50
2023/06/04 03:27:58;;;;;;;8.87;8.03;;;15.30;99.90;;;;;;5001440;28;20207;-51
2023/06/04 03:30:27;;;;;;;9.37;8.50;;;15.30;99.90;;;;;;4999823;28;20224;-51
2023/06/04 03:32:53;;;;;;;9.30;8.50;;;15.30;99.90;;;;;;4994489;28;20228;-50
2023/06/04 03:35:20;;;;;;;8.43;7.73;;;15.30;99.90;;;;;;4999564;28;20281;-51
2023/06/04 03:37:47;;;;;;;10.50;9.50;;;15.30;99.90;;;;;;5002558;28;20200;-51
2023/06/04 03:40:14;;;;;;;8.67;7.77;;;15.20;99.90;;;;;;5010682;28;20277;-51
2023/06/04 03:42:42;;;;;;;9.37;8.43;;;15.10;99.90;;;;;;5002238;28;20195;-51
2023/06/04 03:45:10;;;;;;;10.33;9.33;;;15.10;99.90;;;;;;4994035;28;20198;-51
2023/06/04 03:47:39;;;;;;;9.10;8.50;;;15.10;99.90;;;;;;4991189;28;20204;-51
2023/06/04 03:50:07;;;;;;;9.27;8.40;;;15.10;99.90;;;;;;4997887;28;20227;-51
2023/06/04 03:52:34;;;;;;;10.17;9.30;;;15.10;99.90;;;;;;5011750;28;20669;-51
2023/06/04 03:55:01;;;;;;;9.87;8.97;;;15.10;99.90;;;;;;5001393;28;20199;-51
2023/06/04 03:57:28;;;;;;;8.03;7.43;;;15.10;99.90;;;;;;5001589;28;20192;-51
2023/06/04 03:59:55;;;;;;;9.37;8.47;;;15.10;99.90;;;;;;5000104;28;20223;-51
2023/06/04 04:02:22;;;;;;;9.20;8.30;;;15.20;99.90;;;;;;4995858;28;20241;-51
2023/06/04 04:04:53;;;;;;;8.03;7.43;;;15.20;99.90;;;;;;5010227;28;20211;-51
2023/06/04 04:07:22;;;;;;;9.17;8.37;;;15.30;99.90;;;;;;5004765;28;20195;-51
2023/06/04 04:09:49;;;;;;;8.47;7.77;;;15.30;99.90;;;;;;5002213;28;20200;-51
2023/06/04 04:12:16;;;;;;;9.03;8.13;;;15.40;99.90;;;;;;5000480;28;20669;-51
2023/06/04 04:14:43;;;;;;;8.07;7.53;;;15.50;99.90;;;;;;4996750;28;20265;-51
2023/06/04 04:17:14;;;;;;;9.63;8.60;;;15.50;99.90;;;;;;5003577;28;20622;-51
2023/06/04 04:19:41;;;;;;;8.43;7.73;;;15.60;99.90;;;;;;5000384;28;20239;-50
2023/06/04 04:22:17;;;;;;;7.43;6.90;;;15.60;99.90;;;;;;4993123;28;20208;-50
2023/06/04 04:24:44;;;;;;;10.50;9.40;;;15.60;99.90;;;;;;5000993;28;20228;-50
2023/06/04 04:27:11;;;;;;;8.40;7.60;;;15.60;99.90;;;;;;5012971;28;20226;-51
2023/06/04 04:29:39;;;;;;;8.63;7.80;;;15.70;99.90;;;;;;5012746;28;20199;-51
2023/06/04 04:32:10;;;;;;;8.43;7.73;;;15.70;99.90;;;;;;4992383;28;20584;-50
2023/06/04 04:34:38;;;;;;;10.20;9.40;;;15.80;99.90;;;;;;4994605;28;20204;-51
2023/06/04 04:37:08;;;;;;;10.27;9.43;;;15.90;99.90;;;;;;5001061;28;20200;-52
2023/06/04 04:39:36;;;;;;;11.20;10.00;;;15.90;99.90;;;;;;4991747;28;20286;-52
2023/06/04 04:42:04;;;;;;;10.80;9.70;;;15.90;99.90;;;;;;4992909;28;20232;-52
2023/06/04 04:44:31;;;;;;;8.57;7.87;;;16.00;99.90;;;;;;5000631;28;20199;-50
2023/06/04 04:46:57;;;;;;;8.43;7.83;;;16.20;99.90;;;;;;5000412;28;20670;-52
2023/06/04 04:49:24;;;;;;;8.57;7.97;;;16.30;99.90;;;;;;5003420;28;20191;-52
2023/06/04 04:51:51;;;;;;;8.17;7.43;;;16.40;99.90;;;;;;5004064;28;20226;-52
2023/06/04 04:54:18;;;;;;;8.73;8.03;;;16.50;99.90;;;;;;5001353;28;20199;-52
2023/06/04 04:56:46;;;;;;;8.27;7.70;;;16.60;99.90;;;;;;5001044;28;20228;-52
2023/06/04 04:59:13;;;;;;;8.63;7.93;;;16.70;99.90;;;;;;5012160;28;20320;-52
2023/06/04 05:01:40;;;;;;;8.73;7.93;;;16.80;99.90;;;;;;5010549;28;20227;-53
2023/06/04 05:04:07;;;;;;;9.43;8.53;;;16.90;99.90;;;;;;4991688;28;20258;-51
2023/06/04 05:06:34;;;;;;;9.47;8.63;;;16.90;99.90;;;;;;4996102;28;20259;-51
2023/06/04 05:09:01;;;;;;;9.83;9.13;;;17.00;99.90;;;;;;5011525;28;20192;-51
2023/06/04 05:11:28;;;;;;;10.47;9.47;;;17.10;99.90;;;;;;5002415;28;20226;-51
2023/06/04 05:13:57;;;;;;;10.27;9.37;;;17.50;99.90;;;;;;4992909;28;20294;-51
2023/06/04 05:16:25;;;;;;;9.67;9.00;;;17.90;99.90;;;;;;4998108;28;20258;-51
2023/06/04 05:18:52;;;;;;;9.50;8.60;;;18.40;99.90;;;;;;4992279;28;20230;-51
2023/06/04 05:21:19;;;;;;;9.27;8.53;;;19.10;99.90;;;;;;4992556;28;20229;-51
2023/06/04 05:23:48;;;;;;;7.77;7.23;;;20.00;99.90;;;;;;4998802;28;20235;-51
2023/06/04 05:26:15;;;;;;;9.10;8.37;;;20.70;99.90;;;;;;5000342;28;20910;-51
2023/06/04 05:28:43;;;;;;;8.63;7.93;;;20.90;99.90;;;;;;4992173;28;20202;-53
2023/06/04 05:31:13;;;;;;;8.40;7.60;;;21.00;99.90;;;;;;4973111;28;20312;-52
2023/06/04 05:33:39;;;;;;;8.60;7.77;;;21.70;99.90;;;;;;4998320;28;20202;-53
2023/06/04 05:36:06;;;;;;;7.17;6.77;;;22.20;99.90;;;;;;5007209;28;20199;-52
2023/06/04 05:38:35;;;;;;;7.27;6.67;;;22.90;99.90;;;;;;4998949;28;20593;-53
2023/06/04 05:41:02;;;;;;;7.37;6.67;;;23.10;99.90;;;;;;4998274;28;20223;-53
2023/06/04 05:43:29;;;;;;;6.70;6.30;;;23.60;99.90;;;;;;4993885;28;20203;-51
2023/06/04 05:45:57;;;;;;;6.70;6.13;;;23.10;99.90;;;;;;4999423;28;20203;-52
2023/06/04 05:48:25;;;;;;;7.53;6.80;;;22.60;99.90;;;;;;4992286;28;20199;-51
2023/06/04 05:50:52;;;;;;;6.83;6.33;;;22.30;99.90;;;;;;4996936;28;20251;-51
2023/06/04 05:53:19;;;;;;;7.07;6.53;;;22.20;99.90;;;;;;4991021;28;20215;-52
2023/06/04 05:55:46;;;;;;;7.77;7.03;;;22.70;99.90;;;;;;4999213;28;20257;-51
2023/06/04 05:58:13;;;;;;;6.37;6.03;;;23.00;99.90;;;;;;5000129;28;20203;-51
2023/06/04 06:00:40;;;;;;;6.60;6.13;;;22.40;99.90;;;;;;5007707;28;20645;-51
2023/06/04 06:03:07;;;;;;;6.43;5.83;;;22.00;99.90;;;;;;4992570;28;20203;-52
2023/06/04 06:05:36;;;;;;;6.13;5.80;;;22.80;99.90;;;;;;4998785;28;20235;-52
2023/06/04 06:08:03;;;;;;;6.17;5.77;;;23.50;99.90;;;;;;5005810;28;20674;-52
2023/06/04 06:10:30;;;;;;;7.10;5.97;;;24.30;99.90;;;;;;4999958;28;20212;-51
2023/06/04 06:12:57;;;;;;;7.03;6.37;;;24.40;99.90;;;;;;4995314;28;20219;-51
2023/06/04 06:15:24;;;;;;;5.30;5.00;;;24.70;99.90;;;;;;4992709;28;20200;-51
2023/06/04 06:17:51;;;;;;;6.07;5.67;;;25.00;99.90;;;;;;4989325;28;20234;-52
2023/06/04 06:20:19;;;;;;;5.70;5.30;;;24.80;99.90;;;;;;4977443;28;20693;-51
2023/06/04 06:22:47;;;;;;;6.10;5.70;;;24.50;99.90;;;;;;4994879;28;20208;-51
2023/06/04 06:25:15;;;;;;;6.90;6.20;;;23.90;99.90;;;;;;4990172;28;20224;-52
2023/06/04 06:27:42;;;;;;;6.97;5.60;;;24.50;99.90;;;;;;4996767;28;20207;-52
2023/06/04 06:30:10;;;;;;;6.23;5.87;;;25.40;99.90;;;;;;4998075;28;20215;-52
2023/06/04 06:32:37;;;;;;;8.93;5.43;;;26.00;99.90;;;;;;4998923;28;20199;-52
2023/06/04 06:35:07;;;;;;;6.00;5.60;;;25.90;99.90;;;;;;5013559;28;20621;-51
2023/06/04 06:37:34;;;;;;;5.10;4.80;;;26.50;99.90;;;;;;5006913;28;20211;-52
2023/06/04 06:40:03;;;;;;;5.37;5.17;;;26.60;99.90;;;;;;4995161;28;20235;-52
2023/06/04 06:42:33;;;;;;;5.57;5.17;;;26.40;99.90;;;;;;5002619;28;20200;-52
2023/06/04 06:45:00;;;;;;;6.97;6.27;;;26.80;99.90;;;;;;5013695;28;20203;-52
2023/06/04 06:47:27;;;;;;;6.13;5.63;;;27.00;99.90;;;;;;5014533;28;20305;-52
2023/06/04 06:49:55;;;;;;;6.67;6.23;;;26.10;99.90;;;;;;5006126;28;20200;-52
2023/06/04 06:52:22;;;;;;;6.37;5.97;;;25.10;99.90;;;;;;5002285;28;20199;-52
2023/06/04 06:54:49;;;;;;;6.00;5.23;;;25.20;99.90;;;;;;5001819;28;20207;-52
2023/06/04 06:57:17;;;;;;;10.10;5.67;;;25.80;99.90;;;;;;4992373;28;20208;-51
2023/06/04 06:59:44;;;;;;;7.10;6.63;;;25.90;99.90;;;;;;4990863;28;20274;-51
2023/06/04 07:02:15;;;;;;;6.50;6.10;;;25.50;99.90;;;;;;4989591;28;20200;-51
2023/06/04 07:04:42;;;;;;;6.63;6.10;;;24.60;99.90;;;;;;4993188;28;20660;-51
2023/06/04 07:07:11;;;;;;;7.13;6.63;;;24.50;99.90;;;;;;4988633;28;20200;-51
2023/06/04 07:09:38;;;;;;;7.33;6.20;;;24.40;99.90;;;;;;4991868;28;20562;-52
2023/06/04 07:12:06;;;;;;;5.33;5.03;;;24.00;99.90;;;;;;4992227;28;20717;-52
2023/06/04 07:14:34;;;;;;;7.77;6.20;;;24.80;99.90;;;;;;4993665;28;20200;-52
2023/06/04 07:17:02;;;;;;;7.57;6.80;;;25.70;99.90;;;;;;4998190;28;20204;-52
2023/06/04 07:19:28;;;;;;;6.43;6.03;;;26.70;99.90;;;;;;4993221;28;20219;-52
2023/06/04 07:21:56;;;;;;;6.40;6.00;;;27.70;99.90;;;;;;4981443;28;20260;-52
2023/06/04 07:24:23;;;;;;;6.57;6.07;;;26.90;99.90;;;;;;4988427;28;20203;-52
2023/06/04 07:26:50;;;;;;;6.77;5.60;;;27.70;99.90;;;;;;4986101;28;20228;-52
2023/06/04 07:29:17;;;;;;;8.40;7.40;;;28.50;99.90;;;;;;4993047;28;20669;-52
2023/06/04 07:31:46;;;;;;;7.20;6.70;;;28.60;99.90;;;;;;4989912;28;20250;-51
2023/06/04 07:34:13;;;;;;;7.07;6.47;;;27.80;99.90;;;;;;4994272;28;20752;-52
2023/06/04 07:36:40;;;;;;;7.63;6.93;;;27.30;99.90;;;;;;4990836;28;20274;-52
2023/06/04 07:39:08;;;;;;;8.87;7.47;;;27.40;99.90;;;;;;4987008;28;20200;-52
2023/06/04 07:41:35;;;;;;;7.60;7.10;;;26.00;99.90;;;;;;4991721;28;20224;-52
2023/06/04 07:44:02;;;;;;;8.57;7.97;;;25.90;99.90;;;;;;5005716;28;20219;-52
2023/06/04 07:46:29;;;;;;;7.80;7.30;;;25.90;99.90;;;;;;4991442;28;20273;-52
2023/06/04 07:48:57;;;;;;;8.07;7.53;;;26.60;99.90;;;;;;4998308;28;20200;-52
2023/06/04 07:51:25;;;;;;;7.43;6.83;;;27.20;99.90;;;;;;5007509;23;20557;-53
2023/06/04 07:53:52;;;;;;;9.40;6.93;;;27.20;99.90;;;;;;5017079;28;20250;-53
2023/06/04 07:56:19;;;;;;;7.40;7.00;;;26.90;99.90;;;;;;5026388;28;20717;-53
2023/06/04 07:58:46;;;;;;;9.13;8.23;;;27.20;99.90;;;;;;5013347;28;20747;-53
2023/06/04 08:01:13;;;;;;;7.15;6.70;;;27.20;99.90;;;;;;5012202;28;20284;-53
2023/06/04 08:03:41;;;;;;;9.03;8.27;;;27.20;99.90;;;;;;5008659;28;20207;-53
2023/06/04 08:06:14;;;;;;;10.27;9.37;;;27.30;99.90;;;;;;5017743;28;20202;-53
2023/06/04 08:08:45;;;;;;;7.72;7.22;;;27.20;99.90;;;;;;5025615;28;20307;-53
2023/06/04 08:11:12;;;;;;;9.13;6.80;;;27.80;99.90;;;;;;5010015;28;20204;-53
2023/06/04 08:13:40;;;;;;;8.75;8.00;;;28.60;99.90;;;;;;5012140;28;20265;-53
2023/06/04 08:16:09;;;;;;;8.65;7.95;;;28.80;99.90;;;;;;5010519;28;20587;-53
2023/06/04 08:18:40;;;;;;;8.15;7.53;;;29.00;99.90;;;;;;5010411;28;20203;-53
2023/06/04 08:21:10;;;;;;;8.05;7.55;;;29.90;99.90;;;;;;5001799;28;20224;-53
2023/06/04 08:23:37;;;;;;;8.73;8.13;;;29.80;99.90;;;;;;4994621;28;20199;-53
2023/06/04 08:26:05;;;;;;;7.95;7.47;;;30.50;99.90;;;;;;5012151;28;20369;-53
2023/06/04 08:28:32;;;;;;;10.00;9.20;;;30.50;99.90;;;;;;5012121;28;20214;-53
2023/06/04 08:30:59;;;;;;;9.18;8.20;;;29.80;99.70;;;;;;5012019;28;20275;-53
2023/06/04 08:33:26;;;;;;;9.30;8.35;;;29.40;99.90;;;;;;5006639;28;20207;-53
2023/06/04 08:35:53;;;;;;;8.70;8.10;;;29.20;99.90;;;;;;5019932;28;20203;-53
2023/06/04 08:38:21;;;;;;;9.05;8.25;;;29.30;99.90;;;;;;5017383;28;20583;-53
2023/06/04 08:40:53;;;;;;;10.50;9.80;;;28.70;99.90;;;;;;5005151;28;20223;-53
2023/06/04 08:43:20;;;;;;;10.65;9.85;;;27.90;99.90;;;;;;5014610;28;20219;-53
2023/06/04 08:45:51;;;;;;;8.82;8.32;;;27.50;99.90;;;;;;5012120;28;20207;-53
2023/06/04 08:48:22;;;;;;;9.80;8.90;;;27.50;99.90;;;;;;5009556;28;20199;-53
2023/06/04 08:50:50;;;;;;;10.10;9.32;;;27.00;99.90;;;;;;5007716;28;20620;-52
2023/06/04 08:53:17;;;;;;;8.30;7.57;;;27.20;99.90;;;;;;5003261;28;20227;-53
2023/06/04 08:55:46;;;;;;;8.43;7.80;;;27.30;99.90;;;;;;5006099;28;21081;-53
2023/06/04 08:58:14;;;;;;;8.70;7.90;;;27.70;99.90;;;;;;5018746;28;20258;-53
2023/06/04 09:00:41;;;;;;;7.68;7.00;;;28.50;99.90;;;;;;5011932;28;20720;-53
2023/06/04 09:03:10;;;;;;;7.72;7.20;;;28.50;99.90;;;;;;5010142;28;20285;-53
2023/06/04 09:05:39;;;;;;;7.18;6.78;;;28.80;99.90;;;;;;5011597;28;20804;-53
2023/06/04 09:08:09;;;;;;;7.55;7.05;;;28.70;99.90;;;;;;5006392;28;20286;-53
2023/06/04 09:10:38;;;;;;;7.25;6.68;;;29.20;99.90;;;;;;5017074;28;20286;-52
2023/06/04 09:13:09;;;;;;;12.00;7.70;;;28.60;99.90;;;;;;5030626;28;20226;-53
2023/06/04 09:15:36;;;;;;;8.20;7.40;;;28.30;99.90;;;;;;5029401;28;20202;-53
2023/06/04 09:18:03;;;;;;;7.38;6.85;;;28.30;99.90;;;;;;5018744;28;20211;-53
2023/06/04 09:20:30;;;;;;;8.02;7.32;;;28.80;99.80;;;;;;5019149;28;20215;-53
2023/06/04 09:22:57;;;;;;;8.43;7.82;;;29.50;99.90;;;;;;5011083;28;20222;-53
2023/06/04 09:25:25;;;;;;;7.68;7.18;;;29.80;98.80;;;;;;5011309;28;20249;-54
2023/06/04 09:27:53;;;;;;;6.72;6.32;;;29.00;99.90;;;;;;5018697;28;20206;-53
2023/06/04 09:30:21;;;;;;;7.85;7.25;;;28.70;99.90;;;;;;5015684;28;20670;-53
2023/06/04 09:32:48;;;;;;;8.07;7.47;;;28.50;99.00;;;;;;5011152;28;20227;-53
2023/06/04 09:35:17;;;;;;;9.07;7.72;;;28.20;99.90;;;;;;5022582;28;20221;-53
2023/06/04 09:37:52;;;;;;;8.75;8.15;;;28.60;99.10;;;;;;5019029;28;20293;-53
2023/06/04 09:40:19;;;;;;;9.52;7.97;;;28.50;99.90;;;;;;5022495;28;20245;-55
2023/06/04 09:42:49;;;;;;;8.77;8.07;;;28.00;99.90;;;;;;5030632;28;20226;-53
2023/06/04 09:45:29;;;;;;;7.85;7.10;;;28.20;99.70;;;;;;5024878;28;20306;-53
2023/06/04 09:47:56;;;;;;;9.30;8.40;;;28.80;99.90;;;;;;5015780;28;20213;-53
2023/06/04 09:50:27;;;;;;;8.52;7.80;;;28.40;99.90;;;;;;5010879;28;20735;-53
2023/06/04 09:52:54;;;;;;;7.50;6.97;;;28.60;99.90;;;;;;5009977;28;20245;-53
2023/06/04 09:55:22;;;;;;;8.15;7.50;;;29.30;98.90;;;;;;5019126;28;20245;-53
2023/06/04 09:57:50;;;;;;;10.82;9.80;;;29.90;99.20;;;;;;5017042;28;20287;-54
2023/06/04 10:00:20;;;;;;;8.70;8.00;;;29.30;99.90;;;;;;5013980;28;20250;-52
2023/06/04 10:02:50;;;;;;;8.98;8.23;;;29.00;99.90;;;;;;5020648;28;20231;-53
2023/06/04 10:05:21;;;;;;;9.50;8.73;;;28.60;99.90;;;;;;5014961;28;20198;-53
2023/06/04 10:07:51;;;;;;;8.43;7.93;;;28.40;99.90;;;;;;5014152;28;20310;-53
2023/06/04 10:10:21;;;;;;;7.90;7.32;;;28.70;99.90;;;;;;5025397;28;20191;-53
2023/06/04 10:12:52;;;;;;;7.82;7.30;;;29.40;99.90;;;;;;5034069;28;20226;-53
2023/06/04 10:15:20;;;;;;;8.63;7.75;;;29.70;99.90;;;;;;5034252;28;20203;-53
2023/06/04 10:17:49;;;;;;;6.25;5.95;;;29.80;99.90;;;;;;5021699;28;20219;-53
2023/06/04 10:20:19;;;;;;;7.25;6.68;;;30.10;97.50;;;;;;5018941;28;20215;-53
2023/06/04 10:22:48;;;;;;;6.63;6.10;;;29.60;97.50;;;;;;5033804;28;20222;-53
2023/06/04 10:25:17;;;;;;;7.07;6.68;;;29.80;97.80;;;;;;5034050;28;20198;-53
2023/06/04 10:27:45;;;;;;;7.53;6.80;;;30.10;97.20;;;;;;5026597;28;20210;-53
2023/06/04 10:30:12;;;;;;;6.38;5.78;;;30.60;96.40;;;;;;5025626;28;20202;-53
2023/06/04 10:32:40;;;;;;;6.57;6.07;;;30.50;96.80;;;;;;5025519;28;20272;-53
2023/06/04 10:35:09;;;;;;;7.10;5.85;;;29.60;97.10;;;;;;5011645;28;20234;-53
2023/06/04 10:37:36;;;;;;;6.10;5.70;;;29.10;96.70;;;;;;5011803;28;20207;-53
2023/06/04 10:40:05;;;;;;;9.45;6.97;;;28.70;97.20;;;;;;5009276;28;20736;-53
2023/06/04 10:42:39;;;;;;;6.43;5.93;;;28.30;98.40;;;;;;4994100;28;20330;-53
2023/06/04 10:45:09;;;;;;;6.50;6.03;;;27.80;97.60;;;;;;5000687;28;20675;-53
2023/06/04 10:47:40;;;;;;;10.50;6.00;;;27.50;97.40;;;;;;5023727;28;20207;-53
2023/06/04 10:50:13;;;;;;;7.47;6.78;;;27.30;98.30;;;;;;5016407;28;20664;-53
2023/06/04 10:52:51;;;;;;;6.35;5.88;;;26.80;97.70;;;;;;5017011;28;20289;-53
2023/06/04 10:55:17;;;;;;;7.90;6.00;;;26.40;97.70;;;;;;5010594;28;20199;-53
2023/06/04 10:57:53;;;;;;;6.20;5.35;;;26.60;98.30;;;;;;5016145;28;20203;-53
2023/06/04 11:00:21;;;;;;;5.70;5.27;;;26.90;98.60;;;;;;5020483;28;20222;-52
2023/06/04 11:02:56;;;;;;;5.63;5.22;;;27.00;97.10;;;;;;5012084;28;20310;-53
2023/06/04 11:05:35;;;;;;;5.40;4.97;;;27.20;97.40;;;;;;5008971;28;20205;-65
2023/06/04 11:08:02;;;;;;;4.50;4.25;;;27.20;96.00;;;;;;5021025;28;20198;-64
2023/06/04 11:10:34;;;;;;;5.87;5.53;;;27.10;96.10;;;;;;5032856;28;20723;-64
2023/06/04 11:13:03;;;;;;;5.80;5.20;;;27.00;95.20;;;;;;4999772;28;20710;-65
2023/06/04 11:15:40;;;;;;;6.00;5.50;;;27.20;95.80;;;;;;5009502;28;20226;-60
2023/06/04 11:18:07;;;;;;;5.68;5.03;;;27.20;97.30;;;;;;5015127;28;20734;-60
2023/06/04 11:20:35;;;;;;;5.20;4.90;;;27.20;96.30;;;;;;5030263;28;20218;-53
2023/06/04 11:23:03;;;;;;;5.40;5.00;;;27.50;94.90;;;;;;5012784;28;20222;-53
2023/06/04 11:25:32;;;;;;;5.78;5.35;;;27.30;95.70;;;;;;5011505;28;20213;-53
2023/06/04 11:28:01;;;;;;;5.00;4.70;;;27.10;94.60;;;;;;5021967;28;20207;-53
2023/06/04 11:30:28;;;;;;;5.97;5.23;;;27.20;97.40;;;;;;5020411;28;20195;-54
2023/06/04 11:33:02;;;;;;;5.03;4.70;;;27.20;93.10;;;;;;5019601;28;20230;-53
2023/06/04 11:35:30;;;;;;;4.97;4.57;;;26.90;94.00;;;;;;5006878;28;20237;-53
2023/06/04 11:37:59;;;;;;;5.05;4.68;;;27.30;96.10;;;;;;5013493;28;20272;-53
2023/06/04 11:40:27;;;;;;;6.20;5.60;;;27.20;96.50;;;;;;5013569;28;20289;-54
2023/06/04 11:42:54;;;;;;;5.40;5.13;;;27.50;96.50;;;;;;5027168;28;20688;-53
2023/06/04 11:45:23;;;;;;;4.82;4.53;;;27.70;92.80;;;;;;5011029;28;20357;-53
2023/06/04 11:47:53;;;;;;;5.88;5.30;;;27.70;94.00;;;;;;5014197;28;20239;-53
2023/06/04 11:50:20;;;;;;;5.30;4.82;;;27.70;95.80;;;;;;5023409;28;20205;-53
2023/06/04 11:52:49;;;;;;;4.40;4.20;;;27.50;94.00;;;;;;5031443;28;20304;-53
2023/06/04 11:55:20;;;;;;;4.80;4.50;;;27.30;93.20;;;;;;5028211;28;20211;-53
2023/06/04 11:57:48;;;;;;;5.18;4.80;;;27.30;93.60;;;;;;5011872;28;20203;-53
2023/06/04 12:00:17;;;;;;;5.50;5.05;;;27.30;92.30;;;;;;5012931;28;20290;-53
2023/06/04 12:02:50;;;;;;;6.85;5.15;;;27.30;94.80;;;;;;5016823;28;20226;-53
2023/06/04 12:05:19;;;;;;;6.05;5.60;;;27.00;95.80;;;;;;5015074;28;20244;-53
2023/06/04 12:07:47;;;;;;;5.32;5.03;;;26.90;95.10;;;;;;5020197;28;20205;-53
2023/06/04 12:10:14;;;;;;;4.83;4.53;;;26.70;95.00;;;;;;5024044;28;20241;-53
2023/06/04 12:12:43;;;;;;;4.73;4.37;;;26.70;94.50;;;;;;5027590;28;20305;-53
2023/06/04 12:15:11;;;;;;;4.82;4.53;;;26.90;94.90;;;;;;5031380;28;20672;-53
2023/06/04 12:17:38;;;;;;;5.55;5.03;;;26.70;93.90;;;;;;5022350;28;20269;-53
2023/06/04 12:20:07;;;;;;;6.83;5.50;;;26.70;95.50;;;;;;5019125;28;20600;-53
2023/06/04 12:22:44;;;;;;;4.77;4.37;;;26.50;94.30;;;;;;5016536;28;20227;-53
2023/06/04 12:25:11;;;;;;;4.80;4.17;;;26.60;93.90;;;;;;5012243;28;20194;-53
2023/06/04 12:27:49;;;;;;;5.10;4.67;;;26.50;94.20;;;;;;5009430;28;20196;-53
2023/06/04 12:30:16;;;;;;;5.30;5.00;;;26.30;94.00;;;;;;5018687;28;20211;-53
2023/06/04 12:32:43;;;;;;;5.30;4.80;;;26.30;95.90;;;;;;5010933;28;20219;-53
2023/06/04 12:35:10;;;;;;;5.27;4.87;;;26.30;93.20;;;;;;5011915;28;20202;-53
2023/06/04 12:37:38;;;;;;;3.97;3.67;;;26.40;94.40;;;;;;5007515;28;20199;-54
2023/06/04 12:40:06;;;;;;;5.33;4.97;;;26.40;93.40;;;;;;5030427;28;20656;-53
2023/06/04 12:42:33;;;;;;;5.00;4.20;;;26.70;93.00;;;;;;5018771;28;20267;-53
2023/06/04 12:45:01;;;;;;;4.93;4.57;;;26.80;91.20;;;;;;5029778;28;20202;-53
2023/06/04 12:47:28;;;;;;;4.63;4.40;;;26.90;93.30;;;;;;5029676;28;20926;-63
2023/06/04 12:49:55;;;;;;;5.38;5.07;;;26.90;91.10;;;;;;5030498;28;20261;-66
2023/06/04 12:52:22;;;;;;;4.85;4.55;;;27.00;89.30;;;;;;5011772;28;20286;-66